KFXE/FXE METAR and TAF weather

Enter ICAO airport designator
Station Type Date Time Source
KFXE METAR 2020/07/11 21:53 UTC NOAA

KFXE 112153Z 00000KT 10SM FEW048 26/24 A2993 RMK AO2 RAE37 SLP138 P0001 T02560239


Station Type Date Time Source
KFXE Decoded METAR 2020/07/11 21:53 UTC NOAA

FORT LAUDERDALE EXECUTIVE, FL, United States (KFXE) 26-12N 080-11W 6M
Jul 11, 2020 - 05:53 PM EDT / 2020.07.11 2153 UTC
Wind: Calm:0
Visibility: 10 mile(s):0
Sky conditions: mostly clear
Precipitation last hour: 0.01 inches
Temperature: 78.1 F (25.6 C)
Dew Point: 75.0 F (23.9 C)
Relative Humidity: 90%
Pressure (altimeter): 29.93 in. Hg (1013 hPa)
ob: KFXE 112153Z 00000KT 10SM FEW048 26/24 A2993 RMK AO2 RAE37 SLP138 P0001 T02560239
cycle: 22

Station Type Date Time Source
KFXE TAF 2020/07/11 21:42 UTC NOAA

TAF
AMD KFXE 112041Z 1121/1218 22011KT P6SM VCTS SCT020CB BKN060
FM120200 22005KT P6SM FEW050 SCT250
FM121500 22008KT P6SM VCSH SCT040 BKN150

Example: see airport list